createdAt,value
2023-05-24T00:00:23.709Z,92.43
2023-05-24T00:02:51.042Z,92.89
2023-05-24T00:05:19.017Z,93.84
2023-05-24T00:07:46.150Z,94.61
2023-05-24T00:10:13.406Z,95.56
2023-05-24T00:12:40.569Z,96.25
2023-05-24T00:15:08.088Z,96.81
2023-05-24T00:17:41.416Z,97.20
2023-05-24T00:20:12.174Z,97.72
2023-05-24T00:22:39.375Z,98.17
2023-05-24T00:25:06.898Z,98.69
2023-05-24T00:27:34.035Z,99.01
2023-05-24T00:30:01.092Z,99.34
2023-05-24T00:32:42.498Z,99.51
2023-05-24T00:35:09.748Z,99.71
2023-05-24T00:37:37.568Z,99.65
2023-05-24T00:40:05.114Z,99.82
2023-05-24T00:42:32.295Z,100.00
2023-05-24T00:44:59.790Z,100.00
2023-05-24T00:47:26.880Z,99.50
2023-05-24T00:49:53.850Z,99.27
2023-05-24T00:52:21.136Z,98.94
2023-05-24T00:54:49.252Z,99.02
2023-05-24T00:57:18.938Z,99.31
2023-05-24T00:59:46.483Z,98.73
2023-05-24T01:02:13.448Z,98.49
2023-05-24T01:04:40.910Z,98.26
2023-05-24T01:07:52.609Z,97.97
2023-05-24T01:10:53.578Z,97.74
2023-05-24T01:13:34.453Z,97.98
2023-05-24T01:16:18.117Z,98.58
2023-05-24T01:18:47.894Z,98.44
2023-05-24T01:21:41.800Z,98.93
2023-05-24T01:24:46.964Z,99.44
2023-05-24T01:27:14.284Z,99.67
2023-05-24T01:29:41.357Z,99.33
2023-05-24T01:32:08.392Z,99.36
2023-05-24T01:34:35.413Z,99.91
2023-05-24T01:37:02.536Z,100.00
2023-05-24T01:39:29.754Z,99.79
2023-05-24T01:42:21.264Z,99.69
2023-05-24T01:44:58.092Z,99.39
2023-05-24T01:47:28.212Z,98.85
2023-05-24T01:49:59.764Z,98.99
2023-05-24T01:52:31.866Z,98.85
2023-05-24T01:54:58.992Z,98.85
2023-05-24T01:57:26.131Z,98.69
2023-05-24T01:59:53.204Z,98.90
2023-05-24T02:02:20.448Z,98.53
2023-05-24T02:04:47.635Z,98.62
2023-05-24T02:07:14.655Z,98.47
2023-05-24T02:09:41.763Z,98.80
2023-05-24T02:12:09.463Z,98.76
2023-05-24T02:14:38.054Z,98.37
2023-05-24T02:17:06.226Z,98.67
2023-05-24T02:19:36.975Z,99.00
2023-05-24T02:22:07.385Z,99.25
2023-05-24T02:24:35.012Z,99.36
2023-05-24T02:27:02.728Z,99.42
2023-05-24T02:29:29.919Z,99.40
2023-05-24T02:31:57.068Z,99.54
2023-05-24T02:34:24.208Z,99.00
2023-05-24T02:36:51.763Z,98.90
2023-05-24T02:39:18.860Z,98.52
2023-05-24T02:41:45.917Z,98.71
2023-05-24T02:44:13.149Z,98.58
2023-05-24T02:46:40.645Z,97.99
2023-05-24T02:49:08.029Z,97.82
2023-05-24T02:51:35.083Z,98.07
2023-05-24T02:54:02.176Z,98.11
2023-05-24T02:56:29.692Z,98.06
2023-05-24T02:58:57.161Z,98.33
2023-05-24T03:01:24.356Z,99.04
2023-05-24T03:03:53.542Z,98.99
2023-05-24T03:06:21.040Z,98.93
2023-05-24T03:08:49.373Z,98.84
2023-05-24T03:11:16.823Z,99.01
2023-05-24T03:13:44.461Z,99.36
2023-05-24T03:16:11.850Z,99.36
2023-05-24T03:18:39.073Z,99.47
2023-05-24T03:21:07.554Z,99.38
2023-05-24T03:23:34.659Z,99.46
2023-05-24T03:26:01.805Z,99.63
2023-05-24T03:28:30.196Z,99.78
2023-05-24T03:30:58.080Z,99.64
2023-05-24T03:33:25.518Z,99.52
2023-05-24T03:35:52.703Z,99.46
2023-05-24T03:38:19.779Z,99.42
2023-05-24T03:40:47.999Z,99.40
2023-05-24T03:43:18.574Z,99.34
2023-05-24T03:45:53.747Z,99.17
2023-05-24T03:48:21.171Z,99.05
2023-05-24T03:50:49.047Z,98.70
2023-05-24T03:53:17.482Z,98.95
2023-05-24T03:55:44.857Z,98.92
2023-05-24T03:58:12.846Z,98.90
2023-05-24T04:00:39.930Z,98.75
2023-05-24T04:03:09.197Z,98.57
2023-05-24T04:05:36.330Z,98.26
2023-05-24T04:08:04.396Z,98.16
2023-05-24T04:10:31.615Z,97.75
2023-05-24T04:12:58.850Z,97.53
2023-05-24T04:15:26.949Z,96.96
2023-05-24T04:17:55.386Z,96.67
2023-05-24T04:20:27.729Z,96.81
2023-05-24T04:22:56.187Z,96.53
2023-05-24T04:25:23.498Z,96.02
2023-05-24T04:27:50.923Z,95.78
2023-05-24T04:30:18.272Z,95.43
2023-05-24T04:32:45.326Z,95.30
2023-05-24T04:35:13.013Z,94.99
2023-05-24T04:37:41.040Z,95.11
2023-05-24T04:40:08.750Z,94.87
2023-05-24T04:42:35.931Z,94.39
2023-05-24T04:45:03.012Z,93.85
2023-05-24T04:47:33.863Z,93.35
2023-05-24T04:50:01.101Z,93.34
2023-05-24T04:52:28.242Z,93.35
2023-05-24T04:54:55.694Z,93.52
2023-05-24T04:57:22.963Z,93.40
2023-05-24T04:59:50.059Z,93.57
2023-05-24T05:02:17.601Z,94.01
2023-05-24T05:04:44.852Z,93.79
2023-05-24T05:07:11.885Z,93.38
2023-05-24T05:09:39.018Z,92.96
2023-05-24T05:12:07.249Z,92.76
2023-05-24T05:14:34.422Z,92.42
2023-05-24T05:17:01.624Z,92.23
2023-05-24T05:19:28.885Z,92.10
2023-05-24T05:21:56.115Z,91.79
2023-05-24T05:24:23.261Z,92.09
2023-05-24T05:26:50.619Z,91.93
2023-05-24T05:29:17.687Z,91.72
2023-05-24T05:31:44.948Z,91.62
2023-05-24T05:34:12.104Z,91.45
2023-05-24T05:36:40.943Z,90.85
2023-05-24T05:39:11.550Z,90.36
2023-05-24T05:41:46.294Z,90.04
2023-05-24T05:44:13.908Z,89.73
2023-05-24T05:46:43.965Z,89.85
2023-05-24T05:49:11.486Z,89.24
2023-05-24T05:51:39.980Z,88.91
2023-05-24T05:54:08.961Z,88.25
2023-05-24T05:56:41.140Z,88.04
2023-05-24T05:59:08.231Z,88.06
2023-05-24T06:01:35.576Z,88.01
2023-05-24T06:04:02.792Z,87.68
2023-05-24T06:06:30.069Z,87.69
2023-05-24T06:08:57.272Z,87.20
2023-05-24T06:11:24.299Z,87.21
2023-05-24T06:13:51.601Z,86.69
2023-05-24T06:16:18.785Z,86.20
2023-05-24T06:19:01.251Z,85.71
2023-05-24T06:21:32.343Z,85.49
2023-05-24T06:23:59.861Z,84.54
2023-05-24T06:26:27.286Z,84.23
2023-05-24T06:28:54.752Z,84.09
2023-05-24T06:31:22.171Z,83.31
2023-05-24T06:34:02.823Z,81.27
2023-05-24T06:36:31.100Z,79.15
2023-05-24T06:38:58.318Z,77.82
2023-05-24T06:41:25.271Z,75.77
2023-05-24T06:43:52.683Z,74.12
2023-05-24T06:46:19.822Z,73.33
2023-05-24T06:48:47.618Z,72.27
2023-05-24T06:51:14.824Z,69.59
2023-05-24T06:53:41.973Z,69.07
2023-05-24T06:56:09.927Z,68.21
2023-05-24T06:58:36.978Z,66.90
2023-05-24T07:01:05.220Z,66.13
2023-05-24T07:03:32.570Z,65.87
2023-05-24T07:05:59.768Z,66.50
2023-05-24T07:08:27.211Z,65.79
2023-05-24T07:10:54.717Z,64.90
2023-05-24T07:13:22.053Z,63.36
2023-05-24T07:15:49.390Z,62.18
2023-05-24T07:18:16.675Z,63.17
2023-05-24T07:20:44.166Z,63.01
2023-05-24T07:23:12.140Z,62.95
2023-05-24T07:25:39.306Z,63.06
2023-05-24T07:28:06.345Z,62.43
2023-05-24T07:30:34.138Z,60.74
2023-05-24T07:33:02.042Z,60.60
2023-05-24T07:35:29.560Z,60.35
2023-05-24T07:37:57.016Z,58.85
2023-05-24T07:40:24.229Z,57.48
2023-05-24T07:42:51.643Z,57.05
2023-05-24T07:45:18.691Z,55.76
2023-05-24T07:47:46.077Z,56.25
2023-05-24T07:50:13.257Z,56.21
2023-05-24T07:52:40.389Z,55.66
2023-05-24T07:55:07.840Z,55.64
2023-05-24T07:57:34.973Z,54.28
2023-05-24T08:00:10.299Z,53.99
2023-05-24T08:02:39.077Z,53.55
2023-05-24T08:05:06.689Z,52.07
2023-05-24T08:07:33.759Z,51.06
2023-05-24T08:10:01.198Z,51.07
2023-05-24T08:12:30.551Z,52.08
2023-05-24T08:14:57.668Z,52.02
2023-05-24T08:17:25.135Z,52.72
2023-05-24T08:19:52.230Z,51.63
2023-05-24T08:22:19.865Z,51.06
2023-05-24T08:24:47.505Z,49.81
2023-05-24T08:27:14.855Z,49.84
2023-05-24T08:29:42.101Z,49.87
2023-05-24T08:32:09.851Z,49.90
2023-05-24T08:34:37.790Z,49.54
2023-05-24T08:37:05.182Z,50.03
2023-05-24T08:39:32.323Z,50.38
2023-05-24T08:44:32.566Z,51.05
2023-05-24T08:46:59.553Z,52.00
2023-05-24T08:49:26.694Z,52.40
2023-05-24T08:51:53.817Z,50.66
2023-05-24T08:54:21.299Z,49.93
2023-05-24T08:56:48.480Z,49.46
2023-05-24T08:59:15.535Z,50.05
2023-05-24T09:01:42.594Z,50.04
2023-05-24T09:04:09.741Z,50.35
2023-05-24T09:06:37.202Z,51.55
2023-05-24T09:09:04.340Z,51.35
2023-05-24T09:11:32.190Z,51.97
2023-05-24T09:13:59.237Z,52.64
2023-05-24T09:16:26.374Z,52.87
2023-05-24T09:18:53.568Z,53.44
2023-05-24T09:21:20.819Z,52.67
2023-05-24T09:23:47.925Z,52.85
2023-05-24T09:26:15.090Z,52.70
2023-05-24T09:28:42.302Z,52.97
2023-05-24T09:31:09.372Z,54.29
2023-05-24T09:33:36.451Z,54.44
2023-05-24T09:36:04.920Z,54.13
2023-05-24T09:38:32.112Z,53.35
2023-05-24T09:41:03.324Z,52.64
2023-05-24T09:43:37.377Z,54.21
2023-05-24T09:46:04.956Z,54.54
2023-05-24T09:48:32.073Z,54.45
2023-05-24T09:51:06.643Z,53.40
2023-05-24T09:53:36.154Z,53.70
2023-05-24T09:56:07.238Z,53.01
2023-05-24T09:58:34.394Z,53.39
2023-05-24T10:01:06.683Z,53.26
2023-05-24T10:03:35.108Z,53.67
2023-05-24T10:06:04.986Z,53.97
2023-05-24T10:08:32.347Z,52.97
2023-05-24T10:10:59.497Z,52.13
2023-05-24T10:13:26.995Z,51.85
2023-05-24T10:15:53.976Z,52.04
2023-05-24T10:18:21.341Z,52.05
2023-05-24T10:20:48.876Z,52.83
2023-05-24T10:23:20.622Z,52.54
2023-05-24T10:26:09.884Z,52.53
2023-05-24T10:28:44.842Z,51.99
2023-05-24T10:31:22.159Z,51.81
2023-05-24T10:33:49.186Z,51.97
2023-05-24T10:36:16.315Z,52.21
2023-05-24T10:38:43.717Z,51.91
2023-05-24T10:41:10.985Z,52.13
2023-05-24T10:43:38.381Z,53.47
2023-05-24T10:46:07.558Z,54.13
2023-05-24T10:48:36.460Z,54.64
2023-05-24T10:51:36.545Z,55.04
2023-05-24T10:54:19.589Z,55.40
2023-05-24T10:56:48.366Z,55.27
2023-05-24T10:59:38.911Z,55.20
2023-05-24T11:02:09.862Z,56.05
2023-05-24T11:04:38.433Z,57.24
2023-05-24T11:07:06.145Z,57.39
2023-05-24T11:09:33.558Z,58.02
2023-05-24T11:12:04.211Z,58.01
2023-05-24T11:14:32.208Z,58.53
2023-05-24T11:17:02.283Z,58.93
2023-05-24T11:19:33.193Z,58.61
2023-05-24T11:22:00.697Z,58.77
2023-05-24T11:24:28.016Z,58.80
2023-05-24T11:26:57.201Z,58.31
2023-05-24T11:29:24.430Z,58.55
2023-05-24T11:31:53.154Z,59.23
2023-05-24T11:34:21.143Z,59.74
2023-05-24T11:36:48.555Z,58.49
2023-05-24T11:39:16.334Z,58.95
2023-05-24T11:41:43.715Z,58.31
2023-05-24T11:44:11.679Z,58.30
2023-05-24T11:46:39.586Z,58.75
2023-05-24T11:49:07.246Z,58.04
2023-05-24T11:51:34.685Z,58.52
2023-05-24T11:54:01.848Z,58.62
2023-05-24T11:56:33.018Z,57.96
2023-05-24T11:59:15.601Z,57.97
2023-05-24T12:01:42.980Z,58.33
2023-05-24T12:04:10.488Z,58.90
2023-05-24T12:06:44.826Z,58.97
2023-05-24T12:09:13.793Z,58.52
2023-05-24T12:11:47.326Z,58.88
2023-05-24T12:14:14.963Z,59.09
2023-05-24T12:16:46.243Z,59.63
2023-05-24T12:21:58.824Z,60.94
2023-05-24T12:24:26.451Z,60.66
2023-05-24T12:27:02.718Z,59.87
2023-05-24T12:29:39.995Z,60.06
2023-05-24T12:32:13.298Z,60.31
2023-05-24T12:34:42.550Z,59.44
2023-05-24T12:37:10.168Z,59.88
2023-05-24T12:39:38.006Z,60.28
2023-05-24T12:42:05.109Z,60.05
2023-05-24T12:44:35.899Z,59.65
2023-05-24T12:47:04.172Z,59.57
2023-05-24T12:49:31.766Z,60.26
2023-05-24T12:51:59.050Z,61.06
2023-05-24T12:54:27.491Z,61.37
2023-05-24T12:56:56.671Z,61.02
2023-05-24T12:59:24.778Z,60.58
2023-05-24T13:01:52.682Z,60.92
2023-05-24T13:04:21.220Z,60.87
2023-05-24T13:06:48.498Z,60.87
2023-05-24T13:09:18.154Z,61.05
2023-05-24T13:11:45.715Z,60.99
2023-05-24T13:14:13.018Z,60.18
2023-05-24T13:16:40.025Z,59.12
2023-05-24T13:19:07.377Z,59.08
2023-05-24T13:21:34.598Z,59.53
2023-05-24T13:24:01.696Z,59.16
2023-05-24T13:26:30.971Z,59.10
2023-05-24T13:31:28.140Z,59.16
2023-05-24T13:33:55.500Z,59.81
2023-05-24T13:36:22.569Z,61.05
2023-05-24T13:38:54.314Z,61.40
2023-05-24T13:41:29.758Z,61.45
2023-05-24T13:43:57.059Z,61.20
2023-05-24T13:46:24.201Z,61.58
2023-05-24T13:48:51.570Z,62.58
2023-05-24T13:51:20.000Z,62.03
2023-05-24T13:53:48.144Z,63.00
2023-05-24T13:56:16.034Z,62.87
2023-05-24T13:58:43.212Z,62.76
2023-05-24T14:01:10.635Z,62.92
2023-05-24T14:03:39.802Z,63.21
2023-05-24T14:06:10.618Z,63.25
2023-05-24T14:08:37.757Z,63.08
2023-05-24T14:11:04.815Z,63.00
2023-05-24T14:14:32.876Z,62.03
2023-05-24T14:16:18.976Z,62.13
2023-05-24T14:18:49.248Z,62.73
2023-05-24T14:21:17.990Z,62.74
2023-05-24T14:23:45.454Z,63.09
2023-05-24T14:26:12.557Z,63.96
2023-05-24T14:28:39.492Z,63.99
2023-05-24T14:31:06.737Z,65.51
2023-05-24T14:33:33.723Z,65.60
2023-05-24T14:36:01.068Z,65.46
2023-05-24T14:38:28.205Z,65.31
2023-05-24T14:40:56.984Z,64.93
2023-05-24T14:43:24.264Z,65.33
2023-05-24T14:45:51.451Z,64.81
2023-05-24T14:48:18.565Z,65.06
2023-05-24T14:50:45.567Z,65.05
2023-05-24T14:53:13.105Z,66.07
2023-05-24T14:55:42.238Z,65.84
2023-05-24T14:58:11.933Z,66.64
2023-05-24T15:00:39.901Z,66.94
2023-05-24T15:03:08.334Z,66.60
2023-05-24T15:05:36.463Z,66.96
2023-05-24T15:08:05.543Z,66.52
2023-05-24T15:10:33.438Z,66.59
2023-05-24T15:13:01.660Z,67.05
2023-05-24T15:15:29.144Z,66.69
2023-05-24T15:17:57.716Z,67.01
2023-05-24T15:20:41.023Z,66.17
2023-05-24T15:23:10.828Z,65.79
2023-05-24T15:25:38.621Z,66.06
2023-05-24T15:28:05.938Z,66.20
2023-05-24T15:30:33.089Z,66.40
2023-05-24T15:33:00.271Z,66.24
2023-05-24T15:35:27.267Z,66.25
2023-05-24T15:37:54.311Z,67.93
2023-05-24T15:40:24.216Z,68.58
2023-05-24T15:42:52.979Z,68.87
2023-05-24T15:45:21.036Z,68.38
2023-05-24T15:47:48.265Z,67.24
2023-05-24T15:50:16.395Z,67.02
2023-05-24T15:52:43.528Z,67.37
2023-05-24T15:55:10.965Z,66.99
2023-05-24T15:57:38.245Z,66.52
2023-05-24T16:00:06.001Z,68.05
2023-05-24T16:02:39.927Z,69.28
2023-05-24T16:05:07.692Z,70.49
2023-05-24T16:07:34.887Z,70.72
2023-05-24T16:10:02.037Z,70.68
2023-05-24T16:12:33.066Z,71.50
2023-05-24T16:15:00.313Z,72.55
2023-05-24T16:17:27.535Z,72.49
2023-05-24T16:19:54.652Z,73.07
2023-05-24T16:22:22.280Z,74.80
2023-05-24T16:24:49.334Z,75.47
2023-05-24T16:27:16.517Z,75.13
2023-05-24T16:29:45.592Z,75.76
2023-05-24T16:32:14.207Z,76.35
2023-05-24T16:34:56.020Z,75.36
2023-05-24T16:37:24.814Z,74.37
2023-05-24T16:39:52.194Z,74.91
2023-05-24T16:42:19.305Z,75.13
2023-05-24T16:44:46.590Z,75.25
2023-05-24T16:47:13.788Z,75.42
2023-05-24T16:49:41.063Z,75.51
2023-05-24T16:52:08.626Z,75.26
2023-05-24T16:54:35.731Z,76.84
2023-05-24T16:57:03.506Z,77.26
2023-05-24T16:59:30.599Z,77.07
2023-05-24T17:01:58.329Z,77.26
2023-05-24T17:04:25.580Z,77.19
2023-05-24T17:06:53.073Z,77.17
2023-05-24T17:09:20.289Z,77.00
2023-05-24T17:11:49.365Z,76.72
2023-05-24T17:14:17.964Z,76.37
2023-05-24T17:16:45.088Z,76.58
2023-05-24T17:19:14.099Z,76.33
2023-05-24T17:21:41.109Z,76.29
2023-05-24T17:24:08.353Z,76.56
2023-05-24T17:26:35.456Z,76.56
2023-05-24T17:29:02.581Z,77.30
2023-05-24T17:31:29.720Z,78.89
2023-05-24T17:33:57.493Z,80.25
2023-05-24T17:36:24.553Z,81.23
2023-05-24T17:38:51.705Z,82.01
2023-05-24T17:41:18.791Z,81.89
2023-05-24T17:43:46.188Z,82.21
2023-05-24T17:46:13.622Z,81.64
2023-05-24T17:48:41.394Z,81.83
2023-05-24T17:51:10.749Z,82.63
2023-05-24T17:53:38.197Z,82.36
2023-05-24T17:56:06.413Z,82.21
2023-05-24T17:58:36.973Z,82.42
2023-05-24T18:01:06.225Z,81.92
2023-05-24T18:03:34.192Z,81.61
2023-05-24T18:06:01.478Z,81.68
2023-05-24T18:08:28.607Z,81.68
2023-05-24T18:10:56.213Z,81.86
2023-05-24T18:13:23.357Z,82.27
2023-05-24T18:15:50.587Z,82.72
2023-05-24T18:18:17.811Z,83.30
2023-05-24T18:20:44.980Z,83.56
2023-05-24T18:23:12.880Z,84.03
2023-05-24T18:25:40.125Z,84.53
2023-05-24T18:28:07.472Z,84.95
2023-05-24T18:30:42.442Z,85.56
2023-05-24T18:33:09.732Z,86.10
2023-05-24T18:35:36.930Z,86.92
2023-05-24T18:38:04.564Z,87.25
2023-05-24T18:40:31.614Z,87.32
2023-05-24T18:42:58.707Z,87.69
2023-05-24T18:45:28.879Z,88.45
2023-05-24T18:47:55.977Z,89.04
2023-05-24T18:50:29.200Z,89.26
2023-05-24T18:52:56.427Z,89.48
2023-05-24T18:55:23.459Z,90.02
2023-05-24T18:57:50.627Z,90.24
2023-05-24T19:00:24.472Z,90.80
2023-05-24T19:05:46.418Z,90.95
2023-05-24T19:08:13.918Z,91.12
2023-05-24T19:10:41.369Z,91.00
2023-05-24T19:13:08.507Z,91.31
2023-05-24T19:15:37.375Z,91.94
2023-05-24T19:18:04.741Z,92.63
2023-05-24T19:20:31.991Z,93.25
2023-05-24T19:22:59.334Z,93.40
2023-05-24T19:25:26.570Z,93.40
2023-05-24T19:30:23.656Z,93.81
2023-05-24T19:32:50.874Z,94.29
2023-05-24T19:35:18.109Z,94.45
2023-05-24T19:37:45.085Z,94.70
2023-05-24T19:40:12.405Z,94.60
2023-05-24T19:42:39.372Z,94.99
2023-05-24T19:45:07.312Z,95.04
2023-05-24T19:47:34.459Z,95.44
2023-05-24T19:50:01.610Z,96.14
2023-05-24T19:52:30.406Z,96.78
2023-05-24T19:54:57.560Z,97.34
2023-05-24T19:57:24.598Z,97.83
2023-05-24T19:59:51.941Z,98.02
2023-05-24T20:02:19.019Z,98.42
2023-05-24T20:04:46.258Z,98.73
2023-05-24T20:07:14.825Z,98.93
2023-05-24T20:09:42.000Z,99.16
2023-05-24T20:12:09.472Z,99.35
2023-05-24T20:14:36.777Z,99.66
2023-05-24T20:17:04.215Z,99.98
2023-05-24T20:19:31.383Z,100.00
2023-05-24T20:21:59.150Z,100.00
2023-05-24T20:24:26.123Z,100.00
2023-05-24T20:26:53.149Z,100.00
2023-05-24T20:29:20.148Z,100.00
2023-05-24T20:31:47.381Z,100.00
2023-05-24T20:34:14.863Z,100.00
2023-05-24T20:36:43.717Z,100.00
2023-05-24T20:39:11.450Z,100.00
2023-05-24T20:41:38.842Z,100.00
2023-05-24T20:44:06.137Z,100.00
2023-05-24T20:46:33.695Z,100.00
2023-05-24T20:49:01.651Z,100.00
2023-05-24T20:51:28.811Z,100.00
2023-05-24T20:53:56.093Z,100.00
2023-05-24T20:56:23.253Z,100.00
2023-05-24T20:58:53.059Z,100.00
2023-05-24T21:01:21.396Z,100.00
2023-05-24T21:03:48.758Z,100.00
2023-05-24T21:06:16.036Z,100.00
2023-05-24T21:08:43.531Z,100.00
2023-05-24T21:11:10.806Z,100.00
2023-05-24T21:13:37.977Z,100.00
2023-05-24T21:16:05.252Z,100.00
2023-05-24T21:18:33.488Z,100.00
2023-05-24T21:21:01.076Z,100.00
2023-05-24T21:23:28.695Z,100.00
2023-05-24T21:25:55.839Z,100.00
2023-05-24T21:28:22.865Z,100.00
2023-05-24T21:30:50.047Z,100.00
2023-05-24T21:33:17.129Z,100.00
2023-05-24T21:35:44.444Z,100.00
2023-05-24T21:38:11.862Z,100.00
2023-05-24T21:40:38.931Z,100.00
2023-05-24T21:43:09.683Z,100.00
2023-05-24T21:45:36.874Z,100.00
2023-05-24T21:48:03.983Z,100.00
2023-05-24T21:50:31.039Z,100.00
2023-05-24T21:52:58.029Z,100.00
2023-05-24T21:55:25.020Z,100.00
2023-05-24T21:57:52.745Z,100.00
2023-05-24T22:00:20.252Z,100.00
2023-05-24T22:02:47.748Z,100.00
2023-05-24T22:05:15.034Z,100.00
2023-05-24T22:07:42.095Z,100.00
2023-05-24T22:10:09.480Z,100.00
2023-05-24T22:12:36.578Z,100.00
2023-05-24T22:15:04.310Z,100.00
2023-05-24T22:17:33.127Z,100.00
2023-05-24T22:20:04.658Z,100.00
2023-05-24T22:22:32.028Z,100.00
2023-05-24T22:25:02.598Z,100.00
2023-05-24T22:27:32.008Z,100.00
2023-05-24T22:29:59.075Z,100.00
2023-05-24T22:32:26.243Z,100.00
2023-05-24T22:34:53.388Z,100.00
2023-05-24T22:37:20.615Z,100.00
2023-05-24T22:39:47.700Z,100.00
2023-05-24T22:42:14.814Z,100.00
2023-05-24T22:44:41.926Z,100.00
2023-05-24T22:47:08.982Z,100.00
2023-05-24T22:49:36.162Z,100.00
2023-05-24T22:52:03.258Z,100.00
2023-05-24T22:54:30.317Z,100.00
2023-05-24T22:56:57.695Z,100.00
2023-05-24T22:59:24.714Z,100.00
2023-05-24T23:01:52.011Z,100.00
2023-05-24T23:04:21.668Z,100.00
2023-05-24T23:06:52.677Z,100.00
2023-05-24T23:09:29.499Z,100.00
2023-05-24T23:11:58.681Z,100.00
2023-05-24T23:14:26.161Z,100.00
2023-05-24T23:16:53.214Z,100.00
2023-05-24T23:19:22.183Z,100.00
2023-05-24T23:21:52.439Z,100.00
2023-05-24T23:24:19.523Z,100.00
2023-05-24T23:26:46.626Z,100.00
2023-05-24T23:29:14.101Z,100.00
2023-05-24T23:31:41.395Z,100.00
2023-05-24T23:34:08.660Z,100.00
2023-05-24T23:36:36.550Z,100.00
2023-05-24T23:39:04.026Z,100.00
2023-05-24T23:41:31.143Z,100.00
2023-05-24T23:43:58.112Z,100.00
2023-05-24T23:46:25.265Z,100.00
2023-05-24T23:48:52.348Z,100.00
2023-05-24T23:51:20.549Z,100.00
2023-05-24T23:53:47.675Z,100.00
2023-05-24T23:56:14.787Z,100.00
2023-05-24T23:58:42.058Z,100.00
